sensor_id;sensor_type;location;lat;lon;timestamp;P1;durP1;ratioP1;P2;durP2;ratioP2
21798;SDS011;24973;47.178;15.316;2022-07-04T00:01:49;4.40;;;3.97;;
21798;SDS011;24973;47.178;15.316;2022-07-04T00:04:38;7.17;;;4.83;;
21798;SDS011;24973;47.178;15.316;2022-07-04T00:07:28;4.20;;;3.80;;
21798;SDS011;24973;47.178;15.316;2022-07-04T00:10:18;5.93;;;4.63;;
21798;SDS011;24973;47.178;15.316;2022-07-04T00:13:08;6.43;;;4.37;;
21798;SDS011;24973;47.178;15.316;2022-07-04T00:15:57;7.53;;;4.30;;
21798;SDS011;24973;47.178;15.316;2022-07-04T00:18:46;5.17;;;4.50;;
21798;SDS011;24973;47.178;15.316;2022-07-04T00:21:34;4.73;;;4.33;;
21798;SDS011;24973;47.178;15.316;2022-07-04T00:24:24;6.60;;;4.60;;
21798;SDS011;24973;47.178;15.316;2022-07-04T00:27:13;6.03;;;5.53;;
21798;SDS011;24973;47.178;15.316;2022-07-04T00:30:02;4.53;;;4.13;;
21798;SDS011;24973;47.178;15.316;2022-07-04T00:32:52;5.87;;;5.13;;
21798;SDS011;24973;47.178;15.316;2022-07-04T00:35:41;5.00;;;4.50;;
21798;SDS011;24973;47.178;15.316;2022-07-04T00:38:30;6.17;;;4.33;;
21798;SDS011;24973;47.178;15.316;2022-07-04T00:41:20;4.53;;;4.13;;
21798;SDS011;24973;47.178;15.316;2022-07-04T00:44:10;5.20;;;4.70;;
21798;SDS011;24973;47.178;15.316;2022-07-04T00:47:00;5.60;;;4.70;;
21798;SDS011;24973;47.178;15.316;2022-07-04T00:49:49;8.57;;;4.43;;
21798;SDS011;24973;47.178;15.316;2022-07-04T00:52:38;5.93;;;4.87;;
21798;SDS011;24973;47.178;15.316;2022-07-04T00:55:27;8.80;;;4.47;;
21798;SDS011;24973;47.178;15.316;2022-07-04T00:58:19;5.13;;;4.63;;
21798;SDS011;24973;47.178;15.316;2022-07-04T01:01:11;7.43;;;4.70;;
21798;SDS011;24973;47.178;15.316;2022-07-04T01:04:00;4.83;;;4.40;;
21798;SDS011;24973;47.178;15.316;2022-07-04T01:06:51;4.83;;;4.43;;
21798;SDS011;24973;47.178;15.316;2022-07-04T01:09:40;7.23;;;5.13;;
21798;SDS011;24973;47.178;15.316;2022-07-04T01:12:30;5.23;;;4.10;;
21798;SDS011;24973;47.178;15.316;2022-07-04T01:15:20;6.73;;;4.47;;
21798;SDS011;24973;47.178;15.316;2022-07-04T01:18:09;4.97;;;4.43;;
21798;SDS011;24973;47.178;15.316;2022-07-04T01:20:59;6.03;;;4.67;;
21798;SDS011;24973;47.178;15.316;2022-07-04T01:23:48;5.10;;;4.67;;
21798;SDS011;24973;47.178;15.316;2022-07-04T01:26:37;4.90;;;4.43;;
21798;SDS011;24973;47.178;15.316;2022-07-04T01:29:26;4.83;;;4.43;;
21798;SDS011;24973;47.178;15.316;2022-07-04T01:32:14;10.10;;;4.67;;
21798;SDS011;24973;47.178;15.316;2022-07-04T01:35:04;7.87;;;4.20;;
21798;SDS011;24973;47.178;15.316;2022-07-04T01:37:54;6.53;;;4.23;;
21798;SDS011;24973;47.178;15.316;2022-07-04T01:40:43;5.43;;;4.70;;
21798;SDS011;24973;47.178;15.316;2022-07-04T01:43:32;4.20;;;3.90;;
21798;SDS011;24973;47.178;15.316;2022-07-04T01:46:22;5.77;;;5.27;;
21798;SDS011;24973;47.178;15.316;2022-07-04T01:49:10;5.53;;;4.67;;
21798;SDS011;24973;47.178;15.316;2022-07-04T01:51:59;5.60;;;4.67;;
21798;SDS011;24973;47.178;15.316;2022-07-04T01:54:49;5.87;;;5.27;;
21798;SDS011;24973;47.178;15.316;2022-07-04T01:57:38;5.30;;;4.67;;
21798;SDS011;24973;47.178;15.316;2022-07-04T02:00:27;8.57;;;4.50;;
21798;SDS011;24973;47.178;15.316;2022-07-04T02:03:36;5.10;;;4.60;;
21798;SDS011;24973;47.178;15.316;2022-07-04T02:06:25;5.63;;;4.57;;
21798;SDS011;24973;47.178;15.316;2022-07-04T02:09:14;6.50;;;4.00;;
21798;SDS011;24973;47.178;15.316;2022-07-04T02:12:05;9.67;;;4.40;;
21798;SDS011;24973;47.178;15.316;2022-07-04T02:15:12;7.33;;;6.03;;
21798;SDS011;24973;47.178;15.316;2022-07-04T02:18:01;4.27;;;3.97;;
21798;SDS011;24973;47.178;15.316;2022-07-04T02:20:50;7.83;;;4.70;;
21798;SDS011;24973;47.178;15.316;2022-07-04T02:23:39;7.17;;;4.87;;
21798;SDS011;24973;47.178;15.316;2022-07-04T02:26:28;9.53;;;4.83;;
21798;SDS011;24973;47.178;15.316;2022-07-04T02:29:18;5.20;;;4.43;;
21798;SDS011;24973;47.178;15.316;2022-07-04T02:32:07;7.03;;;5.93;;
21798;SDS011;24973;47.178;15.316;2022-07-04T02:34:56;5.93;;;5.40;;
21798;SDS011;24973;47.178;15.316;2022-07-04T02:37:45;6.10;;;5.43;;
21798;SDS011;24973;47.178;15.316;2022-07-04T02:40:34;8.87;;;5.60;;
21798;SDS011;24973;47.178;15.316;2022-07-04T02:43:22;4.83;;;3.87;;
21798;SDS011;24973;47.178;15.316;2022-07-04T02:46:13;5.50;;;5.00;;
21798;SDS011;24973;47.178;15.316;2022-07-04T02:49:02;5.37;;;4.87;;
21798;SDS011;24973;47.178;15.316;2022-07-04T02:51:51;8.33;;;4.93;;
21798;SDS011;24973;47.178;15.316;2022-07-04T02:54:40;6.10;;;5.60;;
21798;SDS011;24973;47.178;15.316;2022-07-04T02:57:29;5.47;;;5.03;;
21798;SDS011;24973;47.178;15.316;2022-07-04T03:00:18;6.63;;;4.63;;
21798;SDS011;24973;47.178;15.316;2022-07-04T03:03:08;7.90;;;5.13;;
21798;SDS011;24973;47.178;15.316;2022-07-04T03:05:57;5.40;;;4.77;;
21798;SDS011;24973;47.178;15.316;2022-07-04T03:08:49;5.70;;;4.83;;
21798;SDS011;24973;47.178;15.316;2022-07-04T03:11:39;5.63;;;4.77;;
21798;SDS011;24973;47.178;15.316;2022-07-04T03:14:28;5.87;;;5.03;;
21798;SDS011;24973;47.178;15.316;2022-07-04T03:17:17;5.83;;;5.10;;
21798;SDS011;24973;47.178;15.316;2022-07-04T03:20:07;5.13;;;4.73;;
21798;SDS011;24973;47.178;15.316;2022-07-04T03:22:58;5.93;;;4.97;;
21798;SDS011;24973;47.178;15.316;2022-07-04T03:25:46;9.33;;;5.27;;
21798;SDS011;24973;47.178;15.316;2022-07-04T03:28:35;5.93;;;5.00;;
21798;SDS011;24973;47.178;15.316;2022-07-04T03:31:24;5.93;;;5.33;;
21798;SDS011;24973;47.178;15.316;2022-07-04T03:34:15;6.67;;;4.40;;
21798;SDS011;24973;47.178;15.316;2022-07-04T03:37:05;8.20;;;4.90;;
21798;SDS011;24973;47.178;15.316;2022-07-04T03:39:54;6.47;;;5.07;;
21798;SDS011;24973;47.178;15.316;2022-07-04T03:42:42;6.13;;;5.53;;
21798;SDS011;24973;47.178;15.316;2022-07-04T03:45:31;5.67;;;4.80;;
21798;SDS011;24973;47.178;15.316;2022-07-04T03:48:20;5.40;;;4.90;;
21798;SDS011;24973;47.178;15.316;2022-07-04T03:51:09;5.37;;;4.90;;
21798;SDS011;24973;47.178;15.316;2022-07-04T03:54:00;6.27;;;4.93;;
21798;SDS011;24973;47.178;15.316;2022-07-04T03:56:50;6.03;;;4.53;;
21798;SDS011;24973;47.178;15.316;2022-07-04T03:59:39;5.73;;;4.43;;
21798;SDS011;24973;47.178;15.316;2022-07-04T04:02:27;4.43;;;4.03;;
21798;SDS011;24973;47.178;15.316;2022-07-04T04:05:16;6.50;;;4.77;;
21798;SDS011;24973;47.178;15.316;2022-07-04T04:08:13;10.43;;;5.17;;
21798;SDS011;24973;47.178;15.316;2022-07-04T04:11:03;5.47;;;4.50;;
21798;SDS011;24973;47.178;15.316;2022-07-04T04:13:52;5.77;;;4.87;;
21798;SDS011;24973;47.178;15.316;2022-07-04T04:16:41;6.53;;;5.30;;
21798;SDS011;24973;47.178;15.316;2022-07-04T04:19:30;6.17;;;5.00;;
21798;SDS011;24973;47.178;15.316;2022-07-04T04:22:19;7.13;;;5.27;;
21798;SDS011;24973;47.178;15.316;2022-07-04T04:25:07;5.33;;;4.87;;
21798;SDS011;24973;47.178;15.316;2022-07-04T04:27:58;5.03;;;4.53;;
21798;SDS011;24973;47.178;15.316;2022-07-04T04:30:47;6.43;;;4.87;;
21798;SDS011;24973;47.178;15.316;2022-07-04T04:33:36;8.90;;;4.57;;
21798;SDS011;24973;47.178;15.316;2022-07-04T04:36:25;5.87;;;4.90;;
21798;SDS011;24973;47.178;15.316;2022-07-04T04:39:13;7.23;;;4.80;;
21798;SDS011;24973;47.178;15.316;2022-07-04T04:42:02;5.10;;;4.53;;
21798;SDS011;24973;47.178;15.316;2022-07-04T04:44:53;5.27;;;4.30;;
21798;SDS011;24973;47.178;15.316;2022-07-04T04:47:42;6.63;;;4.90;;
21798;SDS011;24973;47.178;15.316;2022-07-04T04:50:30;6.40;;;4.97;;
21798;SDS011;24973;47.178;15.316;2022-07-04T04:53:19;5.13;;;4.67;;
21798;SDS011;24973;47.178;15.316;2022-07-04T04:56:12;4.73;;;4.33;;
21798;SDS011;24973;47.178;15.316;2022-07-04T04:59:00;4.67;;;4.27;;
21798;SDS011;24973;47.178;15.316;2022-07-04T05:01:51;6.27;;;4.93;;
21798;SDS011;24973;47.178;15.316;2022-07-04T05:04:39;4.73;;;4.33;;
21798;SDS011;24973;47.178;15.316;2022-07-04T05:07:28;6.77;;;4.33;;
21798;SDS011;24973;47.178;15.316;2022-07-04T05:10:17;6.60;;;5.07;;
21798;SDS011;24973;47.178;15.316;2022-07-04T05:13:06;6.30;;;5.47;;
21798;SDS011;24973;47.178;15.316;2022-07-04T05:15:55;5.77;;;5.27;;
21798;SDS011;24973;47.178;15.316;2022-07-04T05:18:45;7.70;;;4.87;;
21798;SDS011;24973;47.178;15.316;2022-07-04T05:21:34;5.63;;;5.07;;
21798;SDS011;24973;47.178;15.316;2022-07-04T05:24:23;5.47;;;4.97;;
21798;SDS011;24973;47.178;15.316;2022-07-04T05:27:12;8.70;;;5.20;;
21798;SDS011;24973;47.178;15.316;2022-07-04T05:30:00;5.23;;;4.73;;
21798;SDS011;24973;47.178;15.316;2022-07-04T05:32:49;7.23;;;4.93;;
21798;SDS011;24973;47.178;15.316;2022-07-04T05:35:39;6.03;;;5.43;;
21798;SDS011;24973;47.178;15.316;2022-07-04T05:38:28;8.10;;;5.60;;
21798;SDS011;24973;47.178;15.316;2022-07-04T05:41:17;7.03;;;6.23;;
21798;SDS011;24973;47.178;15.316;2022-07-04T05:44:06;5.70;;;5.13;;
21798;SDS011;24973;47.178;15.316;2022-07-04T05:46:55;6.67;;;5.43;;
21798;SDS011;24973;47.178;15.316;2022-07-04T05:49:43;8.97;;;6.80;;
21798;SDS011;24973;47.178;15.316;2022-07-04T05:52:34;8.33;;;5.13;;
21798;SDS011;24973;47.178;15.316;2022-07-04T05:55:22;6.30;;;4.77;;
21798;SDS011;24973;47.178;15.316;2022-07-04T05:58:11;6.83;;;4.90;;
21798;SDS011;24973;47.178;15.316;2022-07-04T06:01:00;5.67;;;4.83;;
21798;SDS011;24973;47.178;15.316;2022-07-04T06:03:49;8.43;;;5.30;;
21798;SDS011;24973;47.178;15.316;2022-07-04T06:06:38;8.17;;;5.27;;
21798;SDS011;24973;47.178;15.316;2022-07-04T06:09:28;8.27;;;4.90;;
21798;SDS011;24973;47.178;15.316;2022-07-04T06:12:17;7.20;;;6.40;;
21798;SDS011;24973;47.178;15.316;2022-07-04T06:15:06;11.50;;;5.50;;
21798;SDS011;24973;47.178;15.316;2022-07-04T06:17:56;6.60;;;6.00;;
21798;SDS011;24973;47.178;15.316;2022-07-04T06:20:45;7.17;;;5.10;;
21798;SDS011;24973;47.178;15.316;2022-07-04T06:23:34;8.23;;;5.27;;
21798;SDS011;24973;47.178;15.316;2022-07-04T06:26:24;6.60;;;5.33;;
21798;SDS011;24973;47.178;15.316;2022-07-04T06:29:13;9.73;;;5.33;;
21798;SDS011;24973;47.178;15.316;2022-07-04T06:32:02;8.90;;;5.53;;
21798;SDS011;24973;47.178;15.316;2022-07-04T06:34:51;8.13;;;5.57;;
21798;SDS011;24973;47.178;15.316;2022-07-04T06:37:58;6.83;;;5.20;;
21798;SDS011;24973;47.178;15.316;2022-07-04T06:40:48;5.27;;;4.77;;
21798;SDS011;24973;47.178;15.316;2022-07-04T06:43:39;6.80;;;5.50;;
21798;SDS011;24973;47.178;15.316;2022-07-04T06:46:28;8.07;;;5.87;;
21798;SDS011;24973;47.178;15.316;2022-07-04T06:49:17;9.83;;;5.07;;
21798;SDS011;24973;47.178;15.316;2022-07-04T06:52:06;6.10;;;5.23;;
21798;SDS011;24973;47.178;15.316;2022-07-04T06:54:54;6.13;;;4.67;;
21798;SDS011;24973;47.178;15.316;2022-07-04T06:57:43;4.73;;;4.23;;
21798;SDS011;24973;47.178;15.316;2022-07-04T07:00:34;6.53;;;5.30;;
21798;SDS011;24973;47.178;15.316;2022-07-04T07:03:23;5.90;;;5.03;;
21798;SDS011;24973;47.178;15.316;2022-07-04T07:06:14;5.97;;;4.70;;
21798;SDS011;24973;47.178;15.316;2022-07-04T07:09:03;4.90;;;4.10;;
21798;SDS011;24973;47.178;15.316;2022-07-04T07:11:51;6.40;;;4.67;;
21798;SDS011;24973;47.178;15.316;2022-07-04T07:14:40;4.83;;;4.33;;
21798;SDS011;24973;47.178;15.316;2022-07-04T07:17:30;5.60;;;4.00;;
21798;SDS011;24973;47.178;15.316;2022-07-04T07:20:19;6.27;;;5.13;;
21798;SDS011;24973;47.178;15.316;2022-07-04T07:23:08;5.30;;;4.10;;
21798;SDS011;24973;47.178;15.316;2022-07-04T07:25:57;6.50;;;4.50;;
21798;SDS011;24973;47.178;15.316;2022-07-04T07:28:46;4.53;;;3.97;;
21798;SDS011;24973;47.178;15.316;2022-07-04T07:31:35;5.87;;;4.20;;
21798;SDS011;24973;47.178;15.316;2022-07-04T07:34:25;4.07;;;3.67;;
21798;SDS011;24973;47.178;15.316;2022-07-04T07:37:14;4.97;;;3.90;;
21798;SDS011;24973;47.178;15.316;2022-07-04T07:40:04;5.17;;;3.77;;
21798;SDS011;24973;47.178;15.316;2022-07-04T07:42:55;6.60;;;3.70;;
21798;SDS011;24973;47.178;15.316;2022-07-04T07:45:44;3.73;;;3.37;;
21798;SDS011;24973;47.178;15.316;2022-07-04T07:48:33;4.27;;;3.87;;
21798;SDS011;24973;47.178;15.316;2022-07-04T07:51:23;3.73;;;3.30;;
21798;SDS011;24973;47.178;15.316;2022-07-04T07:54:12;4.83;;;4.10;;
21798;SDS011;24973;47.178;15.316;2022-07-04T07:57:04;4.63;;;3.63;;
21798;SDS011;24973;47.178;15.316;2022-07-04T07:59:53;5.70;;;3.80;;
21798;SDS011;24973;47.178;15.316;2022-07-04T08:02:42;8.17;;;3.97;;
21798;SDS011;24973;47.178;15.316;2022-07-04T08:05:48;4.07;;;3.53;;
21798;SDS011;24973;47.178;15.316;2022-07-04T08:08:38;6.73;;;4.10;;
21798;SDS011;24973;47.178;15.316;2022-07-04T08:11:27;4.10;;;3.63;;
21798;SDS011;24973;47.178;15.316;2022-07-04T08:14:16;3.13;;;2.83;;
21798;SDS011;24973;47.178;15.316;2022-07-04T08:17:05;5.60;;;2.80;;
21798;SDS011;24973;47.178;15.316;2022-07-04T08:19:54;3.87;;;3.57;;
21798;SDS011;24973;47.178;15.316;2022-07-04T08:22:42;3.30;;;3.00;;
21798;SDS011;24973;47.178;15.316;2022-07-04T08:25:32;3.37;;;2.70;;
21798;SDS011;24973;47.178;15.316;2022-07-04T08:28:21;3.10;;;2.80;;
21798;SDS011;24973;47.178;15.316;2022-07-04T08:31:10;3.67;;;2.80;;
21798;SDS011;24973;47.178;15.316;2022-07-04T08:34:06;3.53;;;2.63;;
21798;SDS011;24973;47.178;15.316;2022-07-04T08:36:55;3.40;;;3.07;;
21798;SDS011;24973;47.178;15.316;2022-07-04T08:39:44;2.97;;;2.70;;
21798;SDS011;24973;47.178;15.316;2022-07-04T08:42:36;2.70;;;2.50;;
21798;SDS011;24973;47.178;15.316;2022-07-04T08:45:27;4.37;;;2.50;;
21798;SDS011;24973;47.178;15.316;2022-07-04T08:48:20;2.73;;;2.53;;
21798;SDS011;24973;47.178;15.316;2022-07-04T08:51:14;3.00;;;2.80;;
21798;SDS011;24973;47.178;15.316;2022-07-04T08:54:05;4.57;;;2.80;;
21798;SDS011;24973;47.178;15.316;2022-07-04T08:57:16;2.23;;;2.03;;
21798;SDS011;24973;47.178;15.316;2022-07-04T09:00:24;2.37;;;2.17;;
21798;SDS011;24973;47.178;15.316;2022-07-04T09:03:13;3.47;;;2.50;;
21798;SDS011;24973;47.178;15.316;2022-07-04T09:06:02;2.73;;;2.33;;
21798;SDS011;24973;47.178;15.316;2022-07-04T09:08:51;2.53;;;2.07;;
21798;SDS011;24973;47.178;15.316;2022-07-04T09:11:41;2.17;;;2.03;;
21798;SDS011;24973;47.178;15.316;2022-07-04T09:14:29;2.63;;;2.43;;
21798;SDS011;24973;47.178;15.316;2022-07-04T09:17:20;3.13;;;2.50;;
21798;SDS011;24973;47.178;15.316;2022-07-04T09:20:13;5.77;;;2.83;;
21798;SDS011;24973;47.178;15.316;2022-07-04T09:23:03;3.00;;;2.77;;
21798;SDS011;24973;47.178;15.316;2022-07-04T09:26:10;2.73;;;2.40;;
21798;SDS011;24973;47.178;15.316;2022-07-04T09:29:01;2.73;;;2.53;;
21798;SDS011;24973;47.178;15.316;2022-07-04T09:31:50;6.07;;;2.23;;
21798;SDS011;24973;47.178;15.316;2022-07-04T09:34:52;2.83;;;2.20;;
21798;SDS011;24973;47.178;15.316;2022-07-04T09:37:43;2.77;;;2.17;;
21798;SDS011;24973;47.178;15.316;2022-07-04T09:40:34;3.97;;;2.50;;
21798;SDS011;24973;47.178;15.316;2022-07-04T09:43:57;2.57;;;2.33;;
21798;SDS011;24973;47.178;15.316;2022-07-04T09:46:48;3.47;;;2.30;;
21798;SDS011;24973;47.178;15.316;2022-07-04T09:49:37;2.77;;;2.50;;
21798;SDS011;24973;47.178;15.316;2022-07-04T09:52:27;2.73;;;2.53;;
21798;SDS011;24973;47.178;15.316;2022-07-04T09:55:21;2.47;;;2.10;;
21798;SDS011;24973;47.178;15.316;2022-07-04T09:58:12;2.70;;;2.40;;
21798;SDS011;24973;47.178;15.316;2022-07-04T10:01:03;3.53;;;3.00;;
21798;SDS011;24973;47.178;15.316;2022-07-04T10:03:52;3.30;;;2.73;;
21798;SDS011;24973;47.178;15.316;2022-07-04T10:06:41;4.13;;;2.23;;
21798;SDS011;24973;47.178;15.316;2022-07-04T10:09:33;2.97;;;2.77;;
21798;SDS011;24973;47.178;15.316;2022-07-04T10:12:24;4.57;;;2.60;;
21798;SDS011;24973;47.178;15.316;2022-07-04T10:15:13;3.97;;;2.97;;
21798;SDS011;24973;47.178;15.316;2022-07-04T10:18:02;3.83;;;3.30;;
21798;SDS011;24973;47.178;15.316;2022-07-04T10:20:52;3.03;;;2.60;;
21798;SDS011;24973;47.178;15.316;2022-07-04T10:23:42;2.93;;;2.63;;
21798;SDS011;24973;47.178;15.316;2022-07-04T10:26:35;2.93;;;2.27;;
21798;SDS011;24973;47.178;15.316;2022-07-04T10:29:23;5.00;;;2.87;;
21798;SDS011;24973;47.178;15.316;2022-07-04T10:32:12;3.03;;;2.60;;
21798;SDS011;24973;47.178;15.316;2022-07-04T10:35:02;3.27;;;2.97;;
21798;SDS011;24973;47.178;15.316;2022-07-04T10:38:02;5.37;;;2.47;;
21798;SDS011;24973;47.178;15.316;2022-07-04T10:40:54;5.37;;;3.17;;
21798;SDS011;24973;47.178;15.316;2022-07-04T10:47:01;2.97;;;2.63;;
21798;SDS011;24973;47.178;15.316;2022-07-04T10:49:51;2.87;;;2.10;;
21798;SDS011;24973;47.178;15.316;2022-07-04T10:52:40;2.40;;;2.20;;
21798;SDS011;24973;47.178;15.316;2022-07-04T10:55:29;2.73;;;2.53;;
21798;SDS011;24973;47.178;15.316;2022-07-04T10:58:27;2.60;;;2.40;;
21798;SDS011;24973;47.178;15.316;2022-07-04T11:01:28;3.53;;;2.60;;
21798;SDS011;24973;47.178;15.316;2022-07-04T11:10:52;2.37;;;2.17;;
21798;SDS011;24973;47.178;15.316;2022-07-04T11:17:27;3.50;;;2.20;;
21798;SDS011;24973;47.178;15.316;2022-07-04T11:20:25;3.97;;;2.53;;
21798;SDS011;24973;47.178;15.316;2022-07-04T11:23:17;4.05;;;2.47;;
21798;SDS011;24973;47.178;15.316;2022-07-04T11:26:07;2.33;;;2.22;;
21798;SDS011;24973;47.178;15.316;2022-07-04T11:28:56;2.35;;;2.15;;
21798;SDS011;24973;47.178;15.316;2022-07-04T11:31:46;5.07;;;2.33;;
21798;SDS011;24973;47.178;15.316;2022-07-04T11:34:37;4.13;;;2.45;;
21798;SDS011;24973;47.178;15.316;2022-07-04T11:37:27;2.10;;;1.90;;
21798;SDS011;24973;47.178;15.316;2022-07-04T11:40:16;1.95;;;1.85;;
21798;SDS011;24973;47.178;15.316;2022-07-04T11:43:22;2.33;;;2.13;;
21798;SDS011;24973;47.178;15.316;2022-07-04T11:46:29;3.10;;;2.90;;
21798;SDS011;24973;47.178;15.316;2022-07-04T11:49:17;3.08;;;2.05;;
21798;SDS011;24973;47.178;15.316;2022-07-04T11:52:08;3.25;;;2.60;;
21798;SDS011;24973;47.178;15.316;2022-07-04T11:54:57;2.40;;;2.20;;
21798;SDS011;24973;47.178;15.316;2022-07-04T11:57:46;2.10;;;1.92;;
21798;SDS011;24973;47.178;15.316;2022-07-04T12:00:37;4.68;;;2.25;;
21798;SDS011;24973;47.178;15.316;2022-07-04T12:03:26;2.60;;;2.15;;
21798;SDS011;24973;47.178;15.316;2022-07-04T12:06:15;2.60;;;2.40;;
21798;SDS011;24973;47.178;15.316;2022-07-04T12:09:05;3.17;;;2.30;;
21798;SDS011;24973;47.178;15.316;2022-07-04T12:11:55;2.92;;;2.33;;
21798;SDS011;24973;47.178;15.316;2022-07-04T12:14:59;2.70;;;2.30;;
21798;SDS011;24973;47.178;15.316;2022-07-04T12:17:51;4.00;;;2.50;;
21798;SDS011;24973;47.178;15.316;2022-07-04T12:20:41;2.90;;;2.38;;
21798;SDS011;24973;47.178;15.316;2022-07-04T12:23:30;2.80;;;2.50;;
21798;SDS011;24973;47.178;15.316;2022-07-04T12:26:20;3.10;;;2.05;;
21798;SDS011;24973;47.178;15.316;2022-07-04T12:29:09;2.80;;;2.40;;
21798;SDS011;24973;47.178;15.316;2022-07-04T12:31:58;2.70;;;2.50;;
21798;SDS011;24973;47.178;15.316;2022-07-04T12:34:47;3.53;;;2.30;;
21798;SDS011;24973;47.178;15.316;2022-07-04T12:37:36;2.60;;;2.40;;
21798;SDS011;24973;47.178;15.316;2022-07-04T12:40:25;2.33;;;2.13;;
21798;SDS011;24973;47.178;15.316;2022-07-04T12:43:16;2.50;;;2.10;;
21798;SDS011;24973;47.178;15.316;2022-07-04T12:46:08;3.85;;;2.83;;
21798;SDS011;24973;47.178;15.316;2022-07-04T12:48:58;7.53;;;5.20;;
21798;SDS011;24973;47.178;15.316;2022-07-04T12:51:49;3.20;;;2.92;;
21798;SDS011;24973;47.178;15.316;2022-07-04T12:54:38;2.83;;;2.53;;
21798;SDS011;24973;47.178;15.316;2022-07-04T12:57:27;2.75;;;2.47;;
21798;SDS011;24973;47.178;15.316;2022-07-04T13:00:17;3.70;;;2.77;;
21798;SDS011;24973;47.178;15.316;2022-07-04T13:03:20;3.20;;;2.80;;
21798;SDS011;24973;47.178;15.316;2022-07-04T13:06:10;2.72;;;2.53;;
21798;SDS011;24973;47.178;15.316;2022-07-04T13:08:59;2.90;;;2.58;;
21798;SDS011;24973;47.178;15.316;2022-07-04T13:11:48;4.22;;;3.78;;
21798;SDS011;24973;47.178;15.316;2022-07-04T13:15:06;3.00;;;2.80;;
21798;SDS011;24973;47.178;15.316;2022-07-04T13:17:59;4.03;;;2.92;;
21798;SDS011;24973;47.178;15.316;2022-07-04T13:20:48;4.15;;;2.65;;
21798;SDS011;24973;47.178;15.316;2022-07-04T13:23:37;2.97;;;2.78;;
21798;SDS011;24973;47.178;15.316;2022-07-04T13:26:26;3.05;;;2.75;;
21798;SDS011;24973;47.178;15.316;2022-07-04T13:29:17;3.55;;;3.10;;
21798;SDS011;24973;47.178;15.316;2022-07-04T13:32:06;2.53;;;2.33;;
21798;SDS011;24973;47.178;15.316;2022-07-04T13:34:58;4.75;;;2.78;;
21798;SDS011;24973;47.178;15.316;2022-07-04T13:37:47;3.70;;;2.75;;
21798;SDS011;24973;47.178;15.316;2022-07-04T13:40:38;2.95;;;2.72;;
21798;SDS011;24973;47.178;15.316;2022-07-04T13:43:27;3.25;;;2.90;;
21798;SDS011;24973;47.178;15.316;2022-07-04T14:17:24;3.03;;;2.40;;
21798;SDS011;24973;47.178;15.316;2022-07-04T14:20:21;2.70;;;2.50;;
21798;SDS011;24973;47.178;15.316;2022-07-04T14:40:03;2.30;;;2.10;;
21798;SDS011;24973;47.178;15.316;2022-07-04T14:42:54;2.42;;;2.22;;
21798;SDS011;24973;47.178;15.316;2022-07-04T14:45:43;3.35;;;2.25;;
21798;SDS011;24973;47.178;15.316;2022-07-04T14:48:33;3.05;;;2.47;;
21798;SDS011;24973;47.178;15.316;2022-07-04T14:51:22;3.60;;;2.50;;
21798;SDS011;24973;47.178;15.316;2022-07-04T14:54:12;2.38;;;2.17;;
21798;SDS011;24973;47.178;15.316;2022-07-04T14:57:01;3.50;;;2.58;;
21798;SDS011;24973;47.178;15.316;2022-07-04T14:59:51;3.30;;;2.65;;
21798;SDS011;24973;47.178;15.316;2022-07-04T15:02:40;3.20;;;2.78;;
21798;SDS011;24973;47.178;15.316;2022-07-04T15:05:28;3.88;;;2.20;;
21798;SDS011;24973;47.178;15.316;2022-07-04T15:08:17;2.50;;;2.30;;
21798;SDS011;24973;47.178;15.316;2022-07-04T15:11:06;2.70;;;2.50;;
21798;SDS011;24973;47.178;15.316;2022-07-04T15:13:57;2.72;;;2.50;;
21798;SDS011;24973;47.178;15.316;2022-07-04T15:16:47;2.80;;;2.58;;
21798;SDS011;24973;47.178;15.316;2022-07-04T15:19:36;2.50;;;2.30;;
21798;SDS011;24973;47.178;15.316;2022-07-04T15:22:38;3.10;;;2.83;;
21798;SDS011;24973;47.178;15.316;2022-07-04T15:25:45;2.30;;;2.10;;
21798;SDS011;24973;47.178;15.316;2022-07-04T15:28:33;2.65;;;2.45;;
21798;SDS011;24973;47.178;15.316;2022-07-04T16:39:01;6.60;;;1.60;;
21798;SDS011;24973;47.178;15.316;2022-07-04T16:41:51;3.40;;;1.60;;
21798;SDS011;24973;47.178;15.316;2022-07-04T16:44:40;3.43;;;1.77;;
21798;SDS011;24973;47.178;15.316;2022-07-04T16:47:28;5.70;;;1.43;;
21798;SDS011;24973;47.178;15.316;2022-07-04T16:50:17;3.90;;;1.90;;
21798;SDS011;24973;47.178;15.316;2022-07-04T16:53:06;2.90;;;1.57;;
21798;SDS011;24973;47.178;15.316;2022-07-04T16:55:55;4.10;;;1.87;;
21798;SDS011;24973;47.178;15.316;2022-07-04T16:58:45;2.17;;;1.57;;
21798;SDS011;24973;47.178;15.316;2022-07-04T17:01:34;2.47;;;1.20;;
21798;SDS011;24973;47.178;15.316;2022-07-04T17:04:23;3.70;;;1.20;;
21798;SDS011;24973;47.178;15.316;2022-07-04T17:07:12;4.30;;;1.73;;
21798;SDS011;24973;47.178;15.316;2022-07-04T17:10:00;2.23;;;1.40;;
21798;SDS011;24973;47.178;15.316;2022-07-04T17:12:49;2.50;;;1.53;;
21798;SDS011;24973;47.178;15.316;2022-07-04T17:15:39;3.57;;;1.73;;
21798;SDS011;24973;47.178;15.316;2022-07-04T17:18:28;4.00;;;1.87;;
21798;SDS011;24973;47.178;15.316;2022-07-04T17:21:17;5.47;;;1.93;;
21798;SDS011;24973;47.178;15.316;2022-07-04T17:24:06;4.80;;;2.10;;
21798;SDS011;24973;47.178;15.316;2022-07-04T17:26:55;1.60;;;1.50;;
21798;SDS011;24973;47.178;15.316;2022-07-04T17:29:52;3.57;;;1.67;;
21798;SDS011;24973;47.178;15.316;2022-07-04T17:32:43;6.13;;;2.10;;
21798;SDS011;24973;47.178;15.316;2022-07-04T17:35:31;1.30;;;1.13;;
21798;SDS011;24973;47.178;15.316;2022-07-04T17:38:20;2.17;;;1.43;;
21798;SDS011;24973;47.178;15.316;2022-07-04T17:41:09;2.47;;;1.80;;
21798;SDS011;24973;47.178;15.316;2022-07-04T17:44:15;3.07;;;1.77;;
21798;SDS011;24973;47.178;15.316;2022-07-04T17:47:08;1.77;;;1.40;;
21798;SDS011;24973;47.178;15.316;2022-07-04T17:49:58;1.97;;;1.57;;
21798;SDS011;24973;47.178;15.316;2022-07-04T17:52:47;2.07;;;1.50;;
21798;SDS011;24973;47.178;15.316;2022-07-04T17:55:36;1.80;;;1.70;;
21798;SDS011;24973;47.178;15.316;2022-07-04T17:58:26;1.57;;;1.43;;
21798;SDS011;24973;47.178;15.316;2022-07-04T18:01:17;1.80;;;1.23;;
21798;SDS011;24973;47.178;15.316;2022-07-04T18:04:06;3.17;;;1.50;;
21798;SDS011;24973;47.178;15.316;2022-07-04T18:06:58;2.40;;;2.20;;
21798;SDS011;24973;47.178;15.316;2022-07-04T18:09:47;5.37;;;2.00;;
21798;SDS011;24973;47.178;15.316;2022-07-04T18:12:36;2.60;;;2.03;;
21798;SDS011;24973;47.178;15.316;2022-07-04T18:15:25;1.47;;;1.37;;
21798;SDS011;24973;47.178;15.316;2022-07-04T18:18:14;1.73;;;1.63;;
21798;SDS011;24973;47.178;15.316;2022-07-04T18:21:03;1.70;;;1.60;;
21798;SDS011;24973;47.178;15.316;2022-07-04T18:23:53;2.63;;;1.77;;
21798;SDS011;24973;47.178;15.316;2022-07-04T18:26:43;1.77;;;1.67;;
21798;SDS011;24973;47.178;15.316;2022-07-04T18:29:33;2.50;;;2.00;;
21798;SDS011;24973;47.178;15.316;2022-07-04T18:32:22;2.70;;;1.97;;
21798;SDS011;24973;47.178;15.316;2022-07-04T18:35:11;1.47;;;1.37;;
21798;SDS011;24973;47.178;15.316;2022-07-04T18:38:00;3.10;;;2.03;;
21798;SDS011;24973;47.178;15.316;2022-07-04T18:40:50;2.03;;;1.93;;
21798;SDS011;24973;47.178;15.316;2022-07-04T18:43:58;3.80;;;1.80;;
21798;SDS011;24973;47.178;15.316;2022-07-04T18:46:46;3.27;;;1.83;;
21798;SDS011;24973;47.178;15.316;2022-07-04T18:49:35;3.00;;;1.93;;
21798;SDS011;24973;47.178;15.316;2022-07-04T18:52:25;2.60;;;2.40;;
21798;SDS011;24973;47.178;15.316;2022-07-04T18:55:15;2.83;;;2.10;;
21798;SDS011;24973;47.178;15.316;2022-07-04T18:58:05;2.97;;;2.00;;
21798;SDS011;24973;47.178;15.316;2022-07-04T19:00:53;2.43;;;2.23;;